Time;durP1;ratioP1;P1;durP2;ratioP2;P2;SDS_P1;SDS_P2;PMS_P1;PMS_P2;Temp;Humidity;BMP_temperature;BMP_pressure;BME280_temperature;BME280_humidity;BME280_pressure;Samples;Min_cycle;Max_cycle;Signal;HPM_P1;HPM_P2
2020/12/19 00:00:13;;;;;;;14.43;10.25;;;6.50;97.80;;;;;;4990802;28;20206;-83
2020/12/19 00:02:41;;;;;;;14.27;9.32;;;6.80;97.90;;;;;;4994131;28;20655;-84
2020/12/19 00:05:08;;;;;;;11.13;9.88;;;6.30;98.20;;;;;;4994158;28;20261;-83
2020/12/19 00:07:35;;;;;;;10.40;9.25;;;6.10;98.10;;;;;;4994231;28;20670;-83
2020/12/19 00:10:02;;;;;;;12.88;9.40;;;6.20;98.30;;;;;;4994288;28;20194;-83
2020/12/19 00:12:28;;;;;;;9.98;8.98;;;6.10;98.70;;;;;;4994083;28;20268;-82
2020/12/19 00:14:54;;;;;;;12.23;9.65;;;6.10;98.60;;;;;;4993383;28;20221;-83
2020/12/19 00:17:21;;;;;;;11.80;10.23;;;6.20;98.50;;;;;;4993673;28;20229;-83
2020/12/19 00:19:47;;;;;;;11.02;9.77;;;6.20;98.20;;;;;;4993863;28;20221;-83
2020/12/19 00:22:14;;;;;;;17.88;9.85;;;6.40;98.50;;;;;;4993972;28;20261;-83
2020/12/19 00:24:41;;;;;;;10.35;9.38;;;6.00;98.00;;;;;;4993386;28;20603;-83
2020/12/19 00:27:11;;;;;;;13.20;9.80;;;5.90;98.60;;;;;;4994558;28;20244;-83
2020/12/19 00:29:38;;;;;;;9.88;8.98;;;5.80;98.60;;;;;;4993854;28;20224;-83
2020/12/19 00:32:05;;;;;;;10.70;9.45;;;5.80;98.90;;;;;;4993840;28;20229;-83
2020/12/19 00:34:32;;;;;;;12.35;10.43;;;5.90;99.00;;;;;;4993638;28;20198;-83
2020/12/19 00:36:59;;;;;;;10.65;9.20;;;6.00;98.80;;;;;;4980313;28;20276;-83
2020/12/19 00:39:26;;;;;;;10.25;9.30;;;6.10;98.40;;;;;;4993857;28;20209;-83
2020/12/19 00:41:53;;;;;;;12.02;10.65;;;6.00;98.20;;;;;;4993742;28;20217;-83
2020/12/19 00:44:19;;;;;;;10.70;9.50;;;6.00;98.50;;;;;;4992746;28;20249;-83
2020/12/19 00:46:48;;;;;;;12.80;9.25;;;6.40;98.50;;;;;;4993656;28;20296;-83
2020/12/19 00:49:15;;;;;;;12.27;9.70;;;6.10;98.20;;;;;;4993588;28;20262;-83
2020/12/19 00:51:41;;;;;;;10.15;9.15;;;6.10;98.10;;;;;;4993554;28;20252;-83
2020/12/19 00:54:07;;;;;;;11.73;10.15;;;6.00;98.30;;;;;;4992866;28;20221;-83
2020/12/19 00:56:34;;;;;;;11.60;10.40;;;6.00;97.80;;;;;;4993950;28;20206;-83
2020/12/19 00:59:02;;;;;;;11.80;10.25;;;6.00;98.10;;;;;;4991610;28;20226;-83
2020/12/19 01:01:29;;;;;;;13.35;10.02;;;6.00;98.00;;;;;;4992796;28;20687;-83
2020/12/19 01:03:58;;;;;;;15.32;11.38;;;6.00;98.00;;;;;;4993538;28;20240;-83
2020/12/19 01:06:27;;;;;;;11.73;10.52;;;6.00;97.70;;;;;;4993361;28;20722;-83
2020/12/19 01:08:58;;;;;;;12.45;10.32;;;5.90;97.90;;;;;;4992956;28;20202;-83
2020/12/19 01:11:27;;;;;;;11.88;10.05;;;5.90;98.00;;;;;;4992871;28;20245;-83
2020/12/19 01:13:53;;;;;;;11.98;9.90;;;5.90;97.90;;;;;;4992319;28;20225;-83
2020/12/19 01:16:22;;;;;;;10.93;9.27;;;5.90;98.10;;;;;;4993011;28;20553;-83
2020/12/19 01:18:50;;;;;;;13.43;10.63;;;5.80;98.10;;;;;;4992911;28;20234;-83
2020/12/19 01:21:20;;;;;;;11.57;9.32;;;5.80;98.30;;;;;;4992937;28;20223;-82
2020/12/19 01:23:46;;;;;;;11.65;8.45;;;5.80;98.40;;;;;;4992593;28;20209;-81
2020/12/19 01:26:13;;;;;;;9.27;8.27;;;5.70;98.70;;;;;;4991879;28;20252;-82
2020/12/19 01:28:40;;;;;;;10.43;9.43;;;5.70;98.70;;;;;;4993194;28;20201;-82
2020/12/19 01:31:08;;;;;;;10.95;8.38;;;5.70;98.60;;;;;;4991616;28;20655;-83
2020/12/19 01:33:36;;;;;;;10.10;8.40;;;5.70;98.50;;;;;;4992668;28;20248;-82
2020/12/19 01:36:03;;;;;;;11.25;9.88;;;5.90;98.50;;;;;;4980430;28;20195;-82
2020/12/19 01:38:29;;;;;;;11.43;8.95;;;5.70;98.30;;;;;;4990001;28;20344;-81
2020/12/19 01:40:57;;;;;;;11.18;9.38;;;5.80;98.30;;;;;;4993009;28;20237;-82
2020/12/19 01:43:24;;;;;;;14.05;10.85;;;5.70;98.50;;;;;;4992936;28;20206;-82
2020/12/19 01:45:51;;;;;;;13.80;12.27;;;5.70;98.70;;;;;;4992188;28;20686;-83
2020/12/19 01:48:21;;;;;;;13.18;11.95;;;5.70;98.50;;;;;;4992228;28;20224;-83
2020/12/19 01:50:50;;;;;;;10.50;9.40;;;5.70;98.40;;;;;;4992160;28;20249;-83
2020/12/19 01:53:17;;;;;;;11.13;10.00;;;5.70;98.20;;;;;;4991923;28;20771;-82
2020/12/19 01:55:44;;;;;;;11.60;9.45;;;5.60;98.30;;;;;;4991541;28;20190;-82
2020/12/19 01:58:11;;;;;;;10.50;9.43;;;5.60;99.20;;;;;;4992142;28;20221;-83
2020/12/19 02:00:39;;;;;;;13.35;9.93;;;5.70;98.80;;;;;;4991276;28;20190;-83
2020/12/19 02:03:07;;;;;;;12.13;10.82;;;6.10;98.70;;;;;;4989708;28;20682;-82
2020/12/19 02:05:40;;;;;;;10.20;9.30;;;5.70;98.50;;;;;;4986532;28;20197;-82
2020/12/19 02:08:10;;;;;;;11.65;10.45;;;5.60;98.70;;;;;;4987986;28;20206;-82
2020/12/19 02:10:40;;;;;;;12.68;10.05;;;5.60;99.20;;;;;;4990091;28;20786;-82
2020/12/19 02:13:09;;;;;;;11.52;10.35;;;5.60;99.10;;;;;;4992295;28;20277;-83
2020/12/19 02:15:40;;;;;;;13.48;10.07;;;5.70;98.90;;;;;;4991265;28;20252;-82
2020/12/19 02:18:07;;;;;;;9.65;8.43;;;5.70;98.60;;;;;;4991532;28;20331;-82
2020/12/19 02:20:36;;;;;;;11.02;9.90;;;5.60;98.50;;;;;;4992059;28;20205;-82
2020/12/19 02:23:06;;;;;;;11.05;10.02;;;5.70;98.50;;;;;;4991940;28;20711;-82
2020/12/19 02:25:36;;;;;;;9.77;8.77;;;5.60;98.30;;;;;;4990662;28;20202;-83
2020/12/19 02:28:05;;;;;;;9.20;8.30;;;5.70;98.40;;;;;;4991891;28;20613;-83
2020/12/19 02:30:33;;;;;;;9.98;8.98;;;5.60;98.30;;;;;;4991204;28;20206;-83
2020/12/19 02:33:01;;;;;;;9.32;8.45;;;5.50;98.80;;;;;;4991893;28;20205;-83
2020/12/19 02:35:29;;;;;;;9.23;8.32;;;5.70;98.80;;;;;;4987934;28;20201;-83
2020/12/19 02:38:01;;;;;;;10.40;9.30;;;5.50;98.60;;;;;;4989363;28;20245;-83
2020/12/19 02:40:29;;;;;;;9.73;8.65;;;5.60;98.80;;;;;;4991292;28;20230;-83
2020/12/19 02:42:56;;;;;;;9.68;8.75;;;5.60;98.60;;;;;;4991679;28;20289;-83
2020/12/19 02:45:23;;;;;;;10.80;7.90;;;5.60;98.40;;;;;;4990330;28;20198;-83
2020/12/19 02:47:49;;;;;;;10.23;8.95;;;5.60;98.40;;;;;;4991254;28;20198;-83
2020/12/19 02:50:16;;;;;;;9.68;8.77;;;5.50;98.60;;;;;;4991325;28;20581;-83
2020/12/19 02:52:42;;;;;;;9.77;8.00;;;5.40;98.20;;;;;;4991455;28;20198;-83
2020/12/19 02:55:08;;;;;;;7.97;7.22;;;5.40;98.90;;;;;;4990653;28;20201;-83
2020/12/19 02:57:35;;;;;;;8.82;7.18;;;5.30;98.90;;;;;;4991334;28;20725;-83
2020/12/19 03:00:04;;;;;;;7.60;7.00;;;5.20;98.90;;;;;;4990128;28;20194;-83
2020/12/19 03:02:30;;;;;;;8.43;7.63;;;5.30;99.20;;;;;;4991221;28;20194;-83
2020/12/19 03:04:56;;;;;;;8.18;7.47;;;5.30;99.40;;;;;;4990107;28;20695;-82
2020/12/19 03:07:23;;;;;;;8.70;7.35;;;5.40;99.20;;;;;;4991153;28;20220;-83
2020/12/19 03:09:49;;;;;;;8.18;7.18;;;5.40;98.80;;;;;;4990314;28;20198;-83
2020/12/19 03:12:16;;;;;;;7.30;6.40;;;5.40;99.10;;;;;;4990851;28;20256;-83
2020/12/19 03:14:43;;;;;;;7.47;6.88;;;5.40;98.60;;;;;;4990762;28;20233;-83
2020/12/19 03:17:10;;;;;;;7.75;7.05;;;5.40;98.80;;;;;;4991237;28;20214;-82
2020/12/19 03:19:36;;;;;;;9.57;6.57;;;5.30;98.50;;;;;;4990990;28;20205;-83
2020/12/19 03:22:03;;;;;;;9.02;8.02;;;5.30;98.50;;;;;;4991125;28;20241;-83
2020/12/19 03:24:29;;;;;;;7.65;6.95;;;5.30;98.90;;;;;;4989431;28;20691;-83
2020/12/19 03:26:55;;;;;;;9.10;7.70;;;5.30;98.70;;;;;;4990865;28;20600;-83
2020/12/19 03:29:22;;;;;;;9.82;8.05;;;5.30;98.50;;;;;;4990610;28;20202;-83
2020/12/19 03:31:48;;;;;;;8.30;7.30;;;5.20;98.40;;;;;;4991087;28;20564;-83
2020/12/19 03:34:15;;;;;;;8.63;7.55;;;5.30;98.50;;;;;;4990349;28;20198;-83
2020/12/19 03:36:42;;;;;;;11.15;8.07;;;5.30;98.30;;;;;;4997489;28;20229;-83
2020/12/19 03:39:08;;;;;;;9.23;8.10;;;5.30;98.30;;;;;;4996825;28;20253;-83
2020/12/19 03:41:35;;;;;;;11.93;8.02;;;5.30;98.00;;;;;;4996939;28;20229;-83
2020/12/19 03:44:01;;;;;;;10.00;7.10;;;5.10;98.30;;;;;;4996746;28;20237;-83
2020/12/19 03:46:27;;;;;;;9.02;7.35;;;5.20;98.30;;;;;;4997118;28;20619;-82
2020/12/19 03:48:54;;;;;;;10.45;7.78;;;5.10;98.40;;;;;;4996770;28;20224;-83
2020/12/19 03:51:21;;;;;;;10.68;6.75;;;5.20;98.40;;;;;;4997308;28;20233;-83
2020/12/19 03:53:47;;;;;;;12.80;7.88;;;5.10;98.20;;;;;;4996568;28;20241;-82
2020/12/19 03:56:14;;;;;;;12.77;7.32;;;5.10;98.10;;;;;;4993242;28;20643;-83
2020/12/19 03:58:40;;;;;;;9.27;6.85;;;5.10;98.10;;;;;;4997039;28;20248;-83
2020/12/19 04:01:06;;;;;;;13.43;8.68;;;5.10;98.20;;;;;;4991553;28;20200;-83
2020/12/19 04:03:33;;;;;;;9.07;6.30;;;5.10;98.30;;;;;;4996074;28;20209;-83
2020/12/19 04:06:00;;;;;;;8.15;7.35;;;5.10;98.40;;;;;;4997124;28;20209;-83
2020/12/19 04:08:28;;;;;;;9.32;7.30;;;5.50;98.50;;;;;;4996971;28;20543;-83
2020/12/19 04:10:54;;;;;;;20.83;6.80;;;5.10;98.30;;;;;;4997090;28;20743;-83
2020/12/19 04:13:21;;;;;;;9.50;6.82;;;5.00;98.30;;;;;;4997193;28;20193;-83
2020/12/19 04:15:48;;;;;;;7.47;6.72;;;5.10;98.30;;;;;;4996441;28;20332;-83
2020/12/19 04:18:15;;;;;;;9.13;8.23;;;5.10;98.20;;;;;;4997119;28;20206;-83
2020/12/19 04:20:41;;;;;;;9.55;7.78;;;5.00;98.00;;;;;;4996256;28;20198;-83
2020/12/19 04:23:07;;;;;;;10.00;8.50;;;5.00;98.10;;;;;;4996577;28;20201;-82
2020/12/19 04:25:35;;;;;;;9.93;8.27;;;5.00;98.10;;;;;;4996096;28;20213;-83
2020/12/19 04:28:01;;;;;;;8.75;7.55;;;5.00;98.10;;;;;;4997189;28;20602;-83
2020/12/19 04:30:28;;;;;;;10.25;8.45;;;5.00;98.40;;;;;;4996859;28;20190;-83
2020/12/19 04:32:54;;;;;;;10.07;8.20;;;5.10;98.10;;;;;;4996505;28;20197;-83
2020/12/19 04:35:21;;;;;;;8.85;7.53;;;5.10;98.20;;;;;;4996087;28;20293;-83
2020/12/19 04:37:49;;;;;;;9.20;8.07;;;5.20;98.20;;;;;;4996125;28;20313;-83
2020/12/19 04:40:16;;;;;;;9.52;7.32;;;5.20;98.20;;;;;;4996685;28;20194;-83
2020/12/19 04:42:47;;;;;;;10.15;8.05;;;5.20;98.20;;;;;;4996883;28;20228;-83
2020/12/19 04:45:16;;;;;;;18.48;7.32;;;5.20;98.20;;;;;;4995926;28;20216;-83
2020/12/19 04:47:43;;;;;;;11.60;8.77;;;5.10;98.10;;;;;;4994177;28;20257;-83
2020/12/19 04:50:14;;;;;;;11.73;7.45;;;5.10;98.30;;;;;;4993358;28;20202;-83
2020/12/19 04:52:42;;;;;;;8.60;7.60;;;5.20;98.20;;;;;;4993904;28;20199;-83
2020/12/19 04:55:10;;;;;;;9.27;8.30;;;5.20;98.60;;;;;;4993595;28;20237;-83
2020/12/19 04:57:38;;;;;;;8.68;7.78;;;5.30;99.10;;;;;;4993652;28;20248;-83
2020/12/19 05:00:07;;;;;;;8.65;7.20;;;5.10;98.20;;;;;;4992539;28;20206;-83
2020/12/19 05:02:35;;;;;;;10.60;9.07;;;5.10;98.00;;;;;;4991440;28;20202;-83
2020/12/19 05:05:05;;;;;;;10.45;8.32;;;5.20;98.30;;;;;;4992450;28;20624;-83
2020/12/19 05:07:32;;;;;;;11.73;7.55;;;5.10;98.20;;;;;;4993200;28;20213;-83
2020/12/19 05:09:59;;;;;;;15.43;8.50;;;6.10;98.50;;;;;;4993476;28;20256;-83
2020/12/19 05:12:27;;;;;;;10.98;8.20;;;5.60;98.20;;;;;;4993194;28;20244;-82
2020/12/19 05:14:54;;;;;;;10.18;9.05;;;5.30;98.10;;;;;;4992851;28;20607;-83
2020/12/19 05:17:22;;;;;;;10.90;8.60;;;5.30;98.40;;;;;;4992933;28;20213;-82
2020/12/19 05:19:53;;;;;;;13.52;8.63;;;5.30;97.90;;;;;;4992740;28;20198;-82
2020/12/19 05:22:20;;;;;;;10.48;8.57;;;5.20;97.80;;;;;;4993300;28;20547;-83
2020/12/19 05:24:47;;;;;;;9.70;8.75;;;6.70;98.70;;;;;;4992813;28;20589;-83
2020/12/19 05:27:13;;;;;;;10.10;9.13;;;6.10;98.60;;;;;;4993573;28;20240;-83
2020/12/19 05:29:40;;;;;;;10.73;9.00;;;5.10;97.80;;;;;;4992596;28;20243;-82
2020/12/19 05:32:06;;;;;;;13.10;8.38;;;5.00;97.80;;;;;;4992354;28;20277;-83
2020/12/19 05:34:33;;;;;;;9.77;8.75;;;5.00;97.80;;;;;;4991971;28;20218;-83
2020/12/19 05:37:01;;;;;;;9.95;8.20;;;5.80;98.30;;;;;;4993225;28;20206;-83
2020/12/19 05:39:27;;;;;;;11.00;8.98;;;5.00;98.00;;;;;;4992259;28;20222;-83
2020/12/19 05:41:54;;;;;;;10.02;8.98;;;5.00;97.90;;;;;;4992234;28;20229;-83
2020/12/19 05:44:22;;;;;;;15.50;9.23;;;5.00;97.90;;;;;;4991820;28;20606;-83
2020/12/19 05:46:50;;;;;;;11.45;9.00;;;5.00;98.00;;;;;;4992821;28;20230;-83
2020/12/19 05:49:16;;;;;;;14.23;9.57;;;5.00;98.00;;;;;;4992961;28;20236;-83
2020/12/19 05:51:44;;;;;;;9.93;9.00;;;5.10;98.10;;;;;;4992487;28;20209;-83
2020/12/19 05:54:12;;;;;;;12.57;8.80;;;5.00;98.00;;;;;;4991747;28;20721;-83
2020/12/19 05:56:41;;;;;;;10.05;8.95;;;6.20;98.80;;;;;;4991934;28;20229;-83
2020/12/19 05:59:11;;;;;;;12.13;9.82;;;5.10;98.40;;;;;;4990098;28;20256;-82
2020/12/19 06:01:41;;;;;;;11.95;9.80;;;4.90;98.20;;;;;;4990903;28;20197;-83
2020/12/19 06:04:08;;;;;;;10.77;9.68;;;6.80;99.50;;;;;;4991110;28;20244;-85
2020/12/19 06:06:38;;;;;;;12.57;8.77;;;5.00;98.00;;;;;;4992143;28;20625;-85
2020/12/19 06:09:05;;;;;;;10.10;8.95;;;5.00;97.90;;;;;;4992115;28;20210;-85
2020/12/19 06:11:38;;;;;;;10.85;9.68;;;5.30;98.20;;;;;;4991929;28;20249;-84
2020/12/19 06:14:09;;;;;;;11.65;9.73;;;5.00;98.10;;;;;;4974954;28;20627;-84
2020/12/19 06:16:41;;;;;;;10.93;9.88;;;4.90;98.10;;;;;;4991729;28;20237;-85
2020/12/19 06:19:14;;;;;;;14.82;9.40;;;5.00;98.20;;;;;;4991938;28;20706;-85
2020/12/19 06:21:50;;;;;;;12.00;10.70;;;4.90;98.00;;;;;;4992275;28;20233;-84
2020/12/19 06:24:39;;;;;;;10.90;8.75;;;4.80;98.00;;;;;;4990533;28;20542;-85
2020/12/19 06:27:09;;;;;;;10.82;9.48;;;4.90;98.00;;;;;;4972707;28;20238;-85
2020/12/19 06:29:37;;;;;;;12.95;9.98;;;4.80;97.80;;;;;;4988189;28;20206;-85
2020/12/19 06:32:04;;;;;;;11.48;9.93;;;4.80;97.90;;;;;;4991285;28;20217;-85
2020/12/19 06:34:30;;;;;;;12.68;11.32;;;4.80;98.00;;;;;;4989373;28;20194;-85
2020/12/19 06:36:57;;;;;;;12.45;9.27;;;4.70;98.00;;;;;;4991517;28;20931;-86
2020/12/19 06:39:23;;;;;;;10.93;9.77;;;4.80;98.10;;;;;;4991411;28;20230;-87
2020/12/19 06:41:53;;;;;;;11.00;8.90;;;4.80;98.10;;;;;;4991949;28;20562;-87
2020/12/19 06:44:25;;;;;;;12.88;10.07;;;4.80;98.10;;;;;;4990409;28;20202;-87
2020/12/19 06:46:53;;;;;;;10.07;8.77;;;4.80;98.10;;;;;;4991231;28;20671;-86
2020/12/19 06:49:37;;;;;;;13.90;10.48;;;6.30;98.80;;;;;;4991092;28;20229;-87
2020/12/19 06:52:08;;;;;;;14.85;9.70;;;4.80;97.90;;;;;;4991231;28;20213;-86
2020/12/19 06:54:37;;;;;;;11.30;10.23;;;5.50;98.20;;;;;;4990711;28;20190;-87
2020/12/19 06:57:06;;;;;;;13.77;11.25;;;4.70;99.90;;;;;;4991727;28;20214;-87
2020/12/19 06:59:34;;;;;;;14.45;10.50;;;4.70;97.70;;;;;;4978425;28;20226;-87
2020/12/19 07:02:22;;;;;;;12.90;10.55;;;4.70;97.80;;;;;;4988909;28;20531;-88
2020/12/19 07:04:49;;;;;;;12.30;10.00;;;4.70;97.90;;;;;;4984344;28;20201;-86
2020/12/19 07:07:21;;;;;;;12.07;10.13;;;5.40;98.30;;;;;;4991298;28;20193;-86
2020/12/19 07:09:55;;;;;;;10.90;9.50;;;4.60;97.80;;;;;;4990554;28;20194;-87
2020/12/19 07:12:35;;;;;;;15.80;10.90;;;4.50;98.00;;;;;;4991048;28;20194;-87
2020/12/19 07:15:03;;;;;;;13.38;10.05;;;4.50;97.80;;;;;;4991497;28;20687;-87
2020/12/19 07:17:42;;;;;;;14.70;10.82;;;5.70;98.60;;;;;;4991231;28;20187;-88
2020/12/19 07:20:09;;;;;;;13.32;10.70;;;4.60;97.90;;;;;;4989552;28;20722;-87
2020/12/19 07:22:35;;;;;;;14.93;11.45;;;4.40;97.90;;;;;;4988601;28;20198;-86
2020/12/19 07:25:02;;;;;;;13.02;10.80;;;4.40;97.90;;;;;;4989135;28;20609;-86
2020/12/19 07:27:28;;;;;;;12.02;10.73;;;4.40;97.90;;;;;;4989919;28;20225;-87
2020/12/19 07:29:59;;;;;;;15.15;12.18;;;4.40;98.10;;;;;;4989849;28;20232;-87
2020/12/19 07:32:26;;;;;;;14.32;9.75;;;5.30;98.50;;;;;;4983091;28;20230;-87
2020/12/19 07:34:53;;;;;;;17.40;11.05;;;4.50;98.00;;;;;;4988566;28;20190;-87
2020/12/19 07:37:20;;;;;;;16.42;11.80;;;4.50;97.90;;;;;;4975044;28;20742;-87
2020/12/19 07:39:47;;;;;;;14.95;11.55;;;5.70;98.50;;;;;;4990495;28;20237;-86
2020/12/19 07:42:13;;;;;;;14.73;12.27;;;4.50;98.00;;;;;;4990588;28;20230;-87
2020/12/19 07:44:40;;;;;;;19.48;11.15;;;4.60;98.00;;;;;;4990497;28;20260;-87
2020/12/19 07:47:08;;;;;;;12.63;11.27;;;5.10;98.40;;;;;;4991488;28;20217;-87
2020/12/19 07:49:44;;;;;;;13.15;11.80;;;4.50;98.00;;;;;;4988927;28;20198;-87
2020/12/19 07:52:18;;;;;;;13.77;11.15;;;4.50;98.00;;;;;;4990438;28;20208;-87
2020/12/19 07:55:01;;;;;;;14.15;11.75;;;4.50;98.00;;;;;;4988091;28;20194;-86
2020/12/19 07:57:29;;;;;;;13.27;11.80;;;4.50;98.10;;;;;;4988761;28;20197;-86
2020/12/19 08:00:34;;;;;;;12.10;10.73;;;5.00;99.90;;;;;;4994027;28;20742;-88
2020/12/19 08:03:15;;;;;;;12.95;11.32;;;4.70;98.00;;;;;;4986000;28;20237;-86
2020/12/19 08:05:42;;;;;;;12.25;11.05;;;4.70;98.20;;;;;;4991712;28;20316;-86
2020/12/19 08:08:12;;;;;;;14.68;12.27;;;4.70;97.60;;;;;;4989319;28;20245;-86
2020/12/19 08:10:38;;;;;;;15.30;13.70;;;4.80;97.70;;;;;;4988561;28;20267;-86
2020/12/19 08:13:09;;;;;;;16.10;14.45;;;4.80;97.60;;;;;;4985841;28;20226;-84
2020/12/19 08:15:37;;;;;;;17.42;13.63;;;4.80;97.70;;;;;;4986515;28;20209;-85
2020/12/19 08:18:08;;;;;;;16.02;12.95;;;4.80;97.70;;;;;;4988245;28;20853;-87
2020/12/19 08:20:53;;;;;;;16.50;14.77;;;4.80;97.70;;;;;;4990374;28;20198;-87
2020/12/19 08:23:41;;;;;;;18.50;14.75;;;4.30;97.40;;;;;;4988114;28;20250;-87
2020/12/19 08:26:17;;;;;;;16.90;15.10;;;4.90;97.60;;;;;;4993325;28;20856;-87
2020/12/19 08:29:05;;;;;;;16.17;14.48;;;3.60;97.20;;;;;;4992953;28;20193;-88
2020/12/19 08:31:38;;;;;;;16.20;13.50;;;5.10;97.90;;;;;;4978841;28;20213;-86
2020/12/19 08:34:06;;;;;;;16.63;14.02;;;6.90;99.00;;;;;;4992496;28;20195;-86
2020/12/19 08:36:33;;;;;;;19.63;14.90;;;5.00;97.90;;;;;;4993649;28;20655;-86
2020/12/19 08:39:13;;;;;;;17.27;12.93;;;5.10;97.90;;;;;;4993972;28;20253;-83
2020/12/19 08:41:40;;;;;;;18.15;13.10;;;6.00;98.20;;;;;;4993551;28;20193;-86
2020/12/19 08:44:07;;;;;;;14.18;12.77;;;5.20;97.70;;;;;;4993464;28;20221;-85
2020/12/19 08:46:33;;;;;;;15.10;13.02;;;5.30;97.60;;;;;;4993317;28;20205;-86
2020/12/19 08:49:02;;;;;;;12.88;11.50;;;5.40;97.60;;;;;;4992059;28;20198;-86
2020/12/19 08:51:29;;;;;;;13.27;11.90;;;5.60;97.70;;;;;;4989825;28;20210;-85
2020/12/19 08:54:11;;;;;;;14.50;11.82;;;5.60;97.50;;;;;;4991424;28;20201;-87
2020/12/19 08:56:38;;;;;;;17.15;12.13;;;5.60;97.50;;;;;;4993162;28;20198;-85
2020/12/19 08:59:04;;;;;;;14.40;12.82;;;5.70;97.50;;;;;;4991816;28;20233;-86
2020/12/19 09:01:31;;;;;;;14.38;12.85;;;5.80;97.90;;;;;;4993264;28;20652;-86
2020/12/19 09:04:08;;;;;;;18.63;13.60;;;5.90;97.60;;;;;;4991587;28;20245;-85
2020/12/19 09:06:46;;;;;;;15.52;13.88;;;5.90;97.50;;;;;;4990848;28;20218;-85
2020/12/19 09:09:18;;;;;;;15.88;12.70;;;6.10;97.50;;;;;;4990714;28;20194;-86
2020/12/19 09:11:44;;;;;;;13.40;12.05;;;6.20;97.50;;;;;;4990567;28;20194;-86
2020/12/19 09:14:12;;;;;;;17.63;13.48;;;6.30;97.50;;;;;;4988598;28;20202;-86
2020/12/19 09:16:48;;;;;;;14.68;12.57;;;6.30;97.40;;;;;;4987133;28;20202;-85
2020/12/19 09:19:15;;;;;;;13.15;11.68;;;6.40;97.50;;;;;;4989329;28;20430;-86
2020/12/19 09:21:52;;;;;;;13.60;12.23;;;6.50;97.40;;;;;;4989076;28;20191;-86
2020/12/19 09:24:20;;;;;;;14.35;10.48;;;6.50;97.40;;;;;;4992249;28;20222;-86
2020/12/19 09:26:46;;;;;;;12.32;10.85;;;6.90;97.60;;;;;;4992752;28;20243;-86
2020/12/19 09:29:13;;;;;;;12.98;11.60;;;6.70;97.30;;;;;;4992152;28;20628;-86
2020/12/19 09:31:39;;;;;;;12.82;11.52;;;6.80;97.20;;;;;;4992267;28;20190;-86
2020/12/19 09:34:05;;;;;;;12.52;10.55;;;6.80;97.20;;;;;;4990935;28;20229;-86
2020/12/19 09:36:32;;;;;;;11.52;10.43;;;6.80;97.00;;;;;;4992897;28;20233;-85
2020/12/19 09:38:58;;;;;;;14.68;11.50;;;6.90;97.10;;;;;;4990092;28;20230;-86
2020/12/19 09:41:26;;;;;;;14.57;11.40;;;7.10;97.20;;;;;;4992431;28;20198;-85
2020/12/19 09:43:52;;;;;;;12.23;10.60;;;7.10;97.00;;;;;;4993061;28;20225;-86
2020/12/19 09:46:19;;;;;;;13.35;10.32;;;7.10;97.10;;;;;;4992209;28;20564;-86
2020/12/19 09:48:45;;;;;;;12.68;10.23;;;7.60;97.30;;;;;;4992777;28;20201;-85
2020/12/19 09:51:11;;;;;;;10.52;9.52;;;7.10;97.00;;;;;;4992366;28;20995;-86
2020/12/19 09:53:38;;;;;;;11.02;9.95;;;7.10;97.10;;;;;;4992253;28;20186;-85
2020/12/19 09:56:05;;;;;;;15.57;11.10;;;7.30;97.00;;;;;;4992228;28;20213;-86
2020/12/19 09:58:33;;;;;;;13.13;10.35;;;7.30;96.80;;;;;;4991392;28;20226;-86
2020/12/19 10:00:59;;;;;;;11.95;10.00;;;7.40;96.90;;;;;;4990977;28;20201;-86
2020/12/19 10:03:26;;;;;;;10.43;9.00;;;7.50;96.80;;;;;;4991779;28;20644;-86
2020/12/19 10:05:52;;;;;;;14.82;9.13;;;7.60;96.60;;;;;;4990665;28;20197;-86
2020/12/19 10:08:18;;;;;;;14.45;9.43;;;7.70;96.40;;;;;;4991223;28;20206;-86
2020/12/19 10:10:46;;;;;;;11.63;10.20;;;7.70;96.30;;;;;;4990981;28;20232;-85
2020/12/19 10:13:12;;;;;;;15.07;8.95;;;7.80;96.20;;;;;;4990035;28;20198;-85
2020/12/19 10:15:40;;;;;;;11.27;8.50;;;7.80;95.80;;;;;;4990517;28;20650;-86
2020/12/19 10:18:07;;;;;;;9.13;8.23;;;7.90;95.70;;;;;;4992185;28;20240;-86
2020/12/19 10:20:34;;;;;;;9.88;7.80;;;7.90;95.50;;;;;;4991001;28;20194;-85
2020/12/19 10:23:00;;;;;;;9.10;8.18;;;8.50;95.60;;;;;;4991924;28;20232;-86
2020/12/19 10:25:27;;;;;;;10.32;8.00;;;8.00;95.30;;;;;;4991358;28;20244;-87
2020/12/19 10:27:53;;;;;;;8.00;7.30;;;8.70;95.50;;;;;;4991492;28;20194;-85
2020/12/19 10:30:19;;;;;;;7.60;6.85;;;8.10;95.30;;;;;;4991097;28;20718;-85
2020/12/19 10:32:47;;;;;;;9.02;7.43;;;8.20;94.80;;;;;;4992060;28;20202;-87
2020/12/19 10:35:13;;;;;;;8.27;7.13;;;8.70;95.10;;;;;;4990885;28;20194;-87
2020/12/19 10:37:40;;;;;;;7.88;7.07;;;8.30;94.50;;;;;;4991829;28;20236;-86
2020/12/19 10:40:06;;;;;;;8.55;7.75;;;8.40;94.40;;;;;;4990228;28;20234;-86
2020/12/19 10:42:33;;;;;;;7.38;6.55;;;8.60;94.40;;;;;;4991400;28;21303;-87
2020/12/19 10:44:59;;;;;;;11.15;7.80;;;9.00;94.80;;;;;;4991000;28;20202;-87
2020/12/19 10:47:26;;;;;;;9.93;6.93;;;8.70;94.10;;;;;;4991993;28;20253;-86
2020/12/19 10:49:53;;;;;;;7.97;6.70;;;8.70;93.80;;;;;;4991694;28;20233;-87
2020/12/19 10:52:19;;;;;;;8.68;7.20;;;8.70;93.90;;;;;;4990782;28;20218;-86
2020/12/19 10:54:46;;;;;;;11.57;6.75;;;8.80;93.70;;;;;;4990986;28;20236;-86
2020/12/19 10:57:12;;;;;;;8.02;7.18;;;8.90;93.50;;;;;;4991448;28;20213;-87
2020/12/19 10:59:38;;;;;;;13.13;7.13;;;8.90;93.60;;;;;;4991415;28;20245;-87
2020/12/19 11:02:05;;;;;;;8.18;7.30;;;9.00;93.50;;;;;;4991344;28;20190;-87
2020/12/19 11:04:31;;;;;;;8.18;7.38;;;9.00;93.60;;;;;;4990234;28;20204;-86
2020/12/19 11:06:58;;;;;;;10.73;8.32;;;9.10;93.30;;;;;;4991383;28;20603;-86
2020/12/19 11:09:25;;;;;;;12.43;9.25;;;9.20;93.40;;;;;;4990752;28;20186;-85
2020/12/19 11:11:53;;;;;;;8.25;7.28;;;9.20;93.00;;;;;;4990800;28;20190;-87
2020/12/19 11:14:20;;;;;;;13.50;9.23;;;9.20;93.70;;;;;;4990837;28;20194;-87
2020/12/19 11:16:47;;;;;;;11.55;8.95;;;9.20;93.40;;;;;;4991665;28;20669;-87
2020/12/19 11:19:14;;;;;;;12.30;9.35;;;9.20;93.10;;;;;;4990522;28;20702;-87
2020/12/19 11:21:44;;;;;;;15.15;9.90;;;9.40;93.50;;;;;;4990675;28;20194;-86
2020/12/19 11:24:12;;;;;;;18.58;8.45;;;9.40;93.40;;;;;;4989776;28;20233;-86
2020/12/19 11:26:40;;;;;;;9.13;8.27;;;9.40;93.20;;;;;;4990510;28;20686;-86
2020/12/19 11:29:07;;;;;;;8.10;7.30;;;9.50;93.10;;;;;;4990997;28;20657;-87
2020/12/19 11:31:33;;;;;;;10.02;7.63;;;9.60;93.10;;;;;;4990326;28;20625;-87
2020/12/19 11:34:00;;;;;;;9.05;8.20;;;9.70;92.70;;;;;;4989921;28;20210;-86
2020/12/19 11:36:26;;;;;;;7.43;6.73;;;9.80;92.90;;;;;;4990368;28;20202;-84
2020/12/19 11:38:53;;;;;;;7.67;6.20;;;10.00;91.80;;;;;;4990132;28;21001;-86
2020/12/19 11:41:24;;;;;;;6.97;6.32;;;10.20;91.50;;;;;;4988638;28;20764;-86
2020/12/19 11:43:50;;;;;;;9.43;5.93;;;10.20;90.80;;;;;;4989560;28;20194;-86
2020/12/19 11:46:18;;;;;;;5.68;5.03;;;10.30;90.30;;;;;;4989063;28;20628;-86
2020/12/19 11:48:45;;;;;;;5.60;5.10;;;10.50;90.00;;;;;;4987178;28;20198;-86
2020/12/19 11:51:12;;;;;;;6.43;5.67;;;10.60;89.20;;;;;;4988536;28;20663;-87
2020/12/19 11:53:38;;;;;;;9.20;5.07;;;10.80;88.90;;;;;;4990324;28;20629;-86
2020/12/19 11:56:05;;;;;;;6.87;5.63;;;10.90;88.60;;;;;;4991426;28;20614;-87
2020/12/19 11:58:33;;;;;;;9.43;5.57;;;11.20;88.20;;;;;;4992346;28;20659;-86
2020/12/19 12:01:00;;;;;;;7.03;5.00;;;11.30;87.40;;;;;;4993603;28;20956;-85
2020/12/19 12:03:26;;;;;;;4.83;4.23;;;11.50;86.80;;;;;;4993499;28;21194;-86
2020/12/19 12:05:53;;;;;;;7.20;3.70;;;11.60;86.90;;;;;;4990769;28;21209;-86
2020/12/19 12:08:19;;;;;;;3.90;3.03;;;11.70;85.50;;;;;;4992640;28;20687;-85
2020/12/19 12:10:45;;;;;;;6.03;2.53;;;11.70;82.80;;;;;;4993596;28;20672;-87
2020/12/19 12:13:12;;;;;;;2.70;2.50;;;11.60;81.90;;;;;;4992745;28;20661;-86
2020/12/19 12:15:39;;;;;;;7.60;3.10;;;11.60;82.30;;;;;;4992800;28;20621;-86
2020/12/19 12:18:06;;;;;;;4.23;3.33;;;11.50;83.00;;;;;;4993406;28;20629;-86
2020/12/19 12:20:32;;;;;;;3.13;2.63;;;11.30;80.70;;;;;;4992904;28;20639;-87
2020/12/19 12:22:59;;;;;;;2.43;2.23;;;11.40;81.10;;;;;;4992611;28;20616;-86
2020/12/19 12:25:25;;;;;;;3.60;3.30;;;11.50;81.30;;;;;;4991542;28;20648;-86
2020/12/19 12:27:51;;;;;;;2.80;2.58;;;11.50;81.90;;;;;;4992892;28;20760;-86
2020/12/19 12:30:18;;;;;;;2.60;2.40;;;11.40;79.60;;;;;;4993193;28;20198;-86
2020/12/19 12:32:45;;;;;;;2.37;2.13;;;11.40;80.30;;;;;;4992903;28;21157;-86
2020/12/19 12:35:12;;;;;;;4.93;2.50;;;11.40;79.30;;;;;;4991596;28;21137;-86
2020/12/19 12:37:39;;;;;;;2.27;2.00;;;11.40;79.10;;;;;;4992790;28;20628;-87
2020/12/19 12:40:05;;;;;;;3.00;2.53;;;11.30;79.30;;;;;;4992676;28;20657;-86
2020/12/19 12:42:32;;;;;;;4.00;2.63;;;11.30;78.90;;;;;;4992635;28;20628;-86
2020/12/19 12:44:58;;;;;;;3.10;2.80;;;11.30;78.90;;;;;;4992978;28;20671;-86
2020/12/19 12:47:25;;;;;;;2.73;2.53;;;11.40;79.70;;;;;;4992129;28;20632;-86
2020/12/19 12:49:52;;;;;;;5.17;3.20;;;11.40;80.60;;;;;;4992806;28;21018;-87